PWSweather.com
Personal Weather Stations
Station Observations
ALLANTONFL
Allanton, Panama City, FL 32404

AllantonPanama City, FL 32404

Lat: 30.036, Lon: -85.48284060000003

Elevation: 11

Station Type: Acurite 5in1

Latest ConditionsUpdated 3:02:05 AM CDT Thursday, Jul 18, 2019
Currently Today's Max Today's Min Today's Average
Temperature 84.2°F29.0°C 84.6°F29.2°C 83.8°F28.8°C 84.2°F29.0°C
Dew Point 77.0°F25.0°C 77.7°F25.4°C 75.4°F24.1°C 76.7°F24.8°C
Winds 4.7 mph W7.6 kmh W 5.3 mph -8.5 kmh - - 2.1 mph 3.4 kmh
Wind Gusts 4.7 mph7.6 kmh 6.3 mph10.1 kmh - -
Humidity 79% 81% 75% 78%
Pressure 30.06 in1017.9 mb 30.09 in1019.0 mb 30.06 in1017.9 mb -
Hour Temp Dew Point Humidity Winds Wind Gusts Pressure Precip Precip Rate Daily Precip Total
03:02 AM 84.2°F29.0°C 77.0°F25.0°C 79% 4.7 mph W7.6 kmh W 4.7 mph7.6 kmh 30.06 in1017.9 mb 0.00 in0.0 mm 0.00 in0.0 mm 0.00 in0.0 mm
03:01 AM 84.2°F29.0°C 77.0°F25.0°C 79% 4.2 mph W6.8 kmh W 4.7 mph7.6 kmh 30.06 in1017.9 mb 0.00 in0.0 mm 0.00 in0.0 mm 0.00 in0.0 mm
03:00 AM 84.2°F29.0°C 77.0°F25.0°C 79% 4.2 mph W6.8 kmh W 4.7 mph7.6 kmh 30.06 in1017.9 mb 0.00 in0.0 mm 0.00 in0.0 mm 0.00 in0.0 mm
02:59 AM 84.2°F29.0°C 77.3°F25.2°C 80% 4.2 mph W6.8 kmh W 4.7 mph7.6 kmh 30.06 in1017.9 mb 0.00 in0.0 mm 0.00 in0.0 mm 0.00 in0.0 mm
02:58 AM 84.2°F29.0°C 77.3°F25.2°C 80% 3.7 mph W6.0 kmh W 4.7 mph7.6 kmh 30.06 in1017.9 mb 0.00 in0.0 mm 0.00 in0.0 mm 0.00 in0.0 mm
02:57 AM 84.2°F29.0°C 77.3°F25.2°C 80% 4.2 mph W6.8 kmh W 4.7 mph7.6 kmh 30.06 in1017.9 mb 0.00 in0.0 mm 0.00 in0.0 mm 0.00 in0.0 mm
02:56 AM 84.2°F29.0°C 77.3°F25.2°C 80% 3.7 mph W6.0 kmh W 4.7 mph7.6 kmh 30.06 in1017.9 mb 0.00 in0.0 mm 0.00 in0.0 mm 0.00 in0.0 mm
02:55 AM 84.2°F29.0°C 77.3°F25.2°C 80% 4.7 mph W7.6 kmh W 4.7 mph7.6 kmh 30.06 in1017.9 mb 0.00 in0.0 mm 0.00 in0.0 mm 0.00 in0.0 mm
02:54 AM 84.0°F28.9°C 77.2°F25.1°C 80% 3.2 mph W5.1 kmh W 4.7 mph7.6 kmh 30.06 in1017.9 mb 0.00 in0.0 mm 0.00 in0.0 mm 0.00 in0.0 mm
02:53 AM 84.0°F28.9°C 77.2°F25.1°C 80% 3.7 mph W6.0 kmh W 4.7 mph7.6 kmh 30.06 in1017.9 mb 0.00 in0.0 mm 0.00 in0.0 mm 0.00 in0.0 mm
02:52 AM 84.0°F28.9°C 77.2°F25.1°C 80% 3.7 mph W6.0 kmh W 4.7 mph7.6 kmh 30.06 in1017.9 mb 0.00 in0.0 mm 0.00 in0.0 mm 0.00 in0.0 mm
02:51 AM 84.0°F28.9°C 76.8°F24.9°C 79% 3.2 mph W5.1 kmh W 4.7 mph7.6 kmh 30.06 in1017.9 mb 0.00 in0.0 mm 0.00 in0.0 mm 0.00 in0.0 mm
02:50 AM 83.8°F28.8°C 77.0°F25.0°C 80% 3.7 mph W6.0 kmh W 4.7 mph7.6 kmh 30.06 in1017.9 mb 0.00 in0.0 mm 0.00 in0.0 mm 0.00 in0.0 mm
02:49 AM 83.8°F28.8°C 77.0°F25.0°C 80% 4.2 mph W6.8 kmh W 4.7 mph7.6 kmh 30.06 in1017.9 mb 0.00 in0.0 mm 0.00 in0.0 mm 0.00 in0.0 mm
02:48 AM 83.8°F28.8°C 77.0°F25.0°C 80% 3.7 mph W6.0 kmh W 4.7 mph7.6 kmh 30.06 in1017.9 mb 0.00 in0.0 mm 0.00 in0.0 mm 0.00 in0.0 mm
02:47 AM 83.8°F28.8°C 77.4°F25.2°C 81% 4.7 mph W7.6 kmh W 4.7 mph7.6 kmh 30.06 in1017.9 mb 0.00 in0.0 mm 0.00 in0.0 mm 0.00 in0.0 mm
02:46 AM 83.8°F28.8°C 77.4°F25.2°C 81% 3.2 mph W5.1 kmh W 4.2 mph6.8 kmh 30.06 in1017.9 mb 0.00 in0.0 mm 0.00 in0.0 mm 0.00 in0.0 mm
02:45 AM 83.8°F28.8°C 77.0°F25.0°C 80% 1.1 mph W1.8 kmh W 4.2 mph6.8 kmh 30.06 in1017.9 mb 0.00 in0.0 mm 0.00 in0.0 mm 0.00 in0.0 mm
02:44 AM 83.8°F28.8°C 77.0°F25.0°C 80% 2.2 mph WSW3.5 kmh WSW 4.2 mph6.8 kmh 30.06 in1017.9 mb 0.00 in0.0 mm 0.00 in0.0 mm 0.00 in0.0 mm
02:43 AM 83.8°F28.8°C 77.0°F25.0°C 80% 2.2 mph WSW3.5 kmh WSW 4.2 mph6.8 kmh 30.06 in1017.9 mb 0.00 in0.0 mm 0.00 in0.0 mm 0.00 in0.0 mm
02:42 AM 83.8°F28.8°C 77.0°F25.0°C 80% 2.7 mph SW4.3 kmh SW 4.2 mph6.8 kmh 30.06 in1017.9 mb 0.00 in0.0 mm 0.00 in0.0 mm 0.00 in0.0 mm
02:41 AM 83.8°F28.8°C 77.0°F25.0°C 80% Calm Calm 4.2 mph6.8 kmh 30.06 in1017.9 mb 0.00 in0.0 mm 0.00 in0.0 mm 0.00 in0.0 mm
02:40 AM 83.8°F28.8°C 77.0°F25.0°C 80% Calm Calm 4.2 mph6.8 kmh 30.06 in1017.9 mb 0.00 in0.0 mm 0.00 in0.0 mm 0.00 in0.0 mm
02:39 AM 83.8°F28.8°C 77.0°F25.0°C 80% Calm Calm 4.7 mph7.6 kmh 30.06 in1017.9 mb 0.00 in0.0 mm 0.00 in0.0 mm 0.00 in0.0 mm
02:38 AM 83.8°F28.8°C 76.6°F24.8°C 79% 2.7 mph W4.3 kmh W 4.7 mph7.6 kmh 30.06 in1017.9 mb 0.00 in0.0 mm 0.00 in0.0 mm 0.00 in0.0 mm
02:37 AM 83.8°F28.8°C 76.6°F24.8°C 79% 2.7 mph W4.3 kmh W 4.7 mph7.6 kmh 30.06 in1017.9 mb 0.00 in0.0 mm 0.00 in0.0 mm 0.00 in0.0 mm
02:36 AM 83.8°F28.8°C 77.0°F25.0°C 80% 2.2 mph W3.5 kmh W 4.7 mph7.6 kmh 30.06 in1017.9 mb 0.00 in0.0 mm 0.00 in0.0 mm 0.00 in0.0 mm
02:35 AM 83.8°F28.8°C 77.0°F25.0°C 80% 2.7 mph W4.3 kmh W 4.7 mph7.6 kmh 30.06 in1017.9 mb 0.00 in0.0 mm 0.00 in0.0 mm 0.00 in0.0 mm
02:34 AM 83.8°F28.8°C 77.0°F25.0°C 80% 2.7 mph W4.3 kmh W 4.7 mph7.6 kmh 30.06 in1017.9 mb 0.00 in0.0 mm 0.00 in0.0 mm 0.00 in0.0 mm
02:33 AM 83.8°F28.8°C 77.0°F25.0°C 80% 2.2 mph W3.5 kmh W 4.7 mph7.6 kmh 30.06 in1017.9 mb 0.00 in0.0 mm 0.00 in0.0 mm 0.00 in0.0 mm
02:32 AM 83.8°F28.8°C 77.0°F25.0°C 80% 1.7 mph SW2.7 kmh SW 4.7 mph7.6 kmh 30.06 in1017.9 mb 0.00 in0.0 mm 0.00 in0.0 mm 0.00 in0.0 mm
02:31 AM 83.8°F28.8°C 77.0°F25.0°C 80% 1.7 mph WSW2.7 kmh WSW 4.7 mph7.6 kmh 30.06 in1017.9 mb 0.00 in0.0 mm 0.00 in0.0 mm 0.00 in0.0 mm
02:30 AM 83.8°F28.8°C 77.0°F25.0°C 80% 3.2 mph W5.1 kmh W 4.7 mph7.6 kmh 30.06 in1017.9 mb 0.00 in0.0 mm 0.00 in0.0 mm 0.00 in0.0 mm
02:29 AM 84.0°F28.9°C 77.2°F25.1°C 80% 3.2 mph W5.1 kmh W 3.7 mph6.0 kmh 30.06 in1017.9 mb 0.00 in0.0 mm 0.00 in0.0 mm 0.00 in0.0 mm
02:28 AM 84.0°F28.9°C 76.8°F24.9°C 79% 2.7 mph W4.3 kmh W 3.7 mph6.0 kmh 30.06 in1017.9 mb 0.00 in0.0 mm 0.00 in0.0 mm 0.00 in0.0 mm
02:27 AM 84.0°F28.9°C 76.8°F24.9°C 79% 3.7 mph W6.0 kmh W 3.7 mph6.0 kmh 30.06 in1017.9 mb 0.00 in0.0 mm 0.00 in0.0 mm 0.00 in0.0 mm
02:26 AM 84.0°F28.9°C 76.8°F24.9°C 79% 1.7 mph W2.7 kmh W 2.7 mph4.3 kmh 30.06 in1017.9 mb 0.00 in0.0 mm 0.00 in0.0 mm 0.00 in0.0 mm
02:25 AM 84.0°F28.9°C 77.2°F25.1°C 80% 1.7 mph W2.7 kmh W 3.2 mph5.1 kmh 30.06 in1017.9 mb 0.00 in0.0 mm 0.00 in0.0 mm 0.00 in0.0 mm
02:24 AM 84.0°F28.9°C 77.2°F25.1°C 80% Calm Calm 3.2 mph5.1 kmh 30.07 in1018.3 mb 0.00 in0.0 mm 0.00 in0.0 mm 0.00 in0.0 mm
02:23 AM 84.0°F28.9°C 77.2°F25.1°C 80% Calm Calm 3.2 mph5.1 kmh 30.07 in1018.3 mb 0.00 in0.0 mm 0.00 in0.0 mm 0.00 in0.0 mm
02:22 AM 84.0°F28.9°C 77.2°F25.1°C 80% 1.7 mph SW2.7 kmh SW 3.7 mph6.0 kmh 30.07 in1018.3 mb 0.00 in0.0 mm 0.00 in0.0 mm 0.00 in0.0 mm
02:21 AM 84.0°F28.9°C 77.2°F25.1°C 80% 1.1 mph WSW1.8 kmh WSW 3.7 mph6.0 kmh 30.07 in1018.3 mb 0.00 in0.0 mm 0.00 in0.0 mm 0.00 in0.0 mm
02:20 AM 84.0°F28.9°C 77.2°F25.1°C 80% 2.2 mph W3.5 kmh W 3.7 mph6.0 kmh 30.07 in1018.3 mb 0.00 in0.0 mm 0.00 in0.0 mm 0.00 in0.0 mm
02:19 AM 84.2°F29.0°C 77.3°F25.2°C 80% Calm Calm 4.2 mph6.8 kmh 30.07 in1018.3 mb 0.00 in0.0 mm 0.00 in0.0 mm 0.00 in0.0 mm
02:18 AM 84.2°F29.0°C 77.3°F25.2°C 80% 1.7 mph SW2.7 kmh SW 4.2 mph6.8 kmh 30.07 in1018.3 mb 0.00 in0.0 mm 0.00 in0.0 mm 0.00 in0.0 mm
02:17 AM 84.2°F29.0°C 77.3°F25.2°C 80% 2.2 mph W3.5 kmh W 4.7 mph7.6 kmh 30.07 in1018.3 mb 0.00 in0.0 mm 0.00 in0.0 mm 0.00 in0.0 mm
02:16 AM 84.2°F29.0°C 77.0°F25.0°C 79% 3.2 mph WSW5.1 kmh WSW 4.7 mph7.6 kmh 30.07 in1018.3 mb 0.00 in0.0 mm 0.00 in0.0 mm 0.00 in0.0 mm
02:15 AM 84.2°F29.0°C 77.0°F25.0°C 79% 1.1 mph SW1.8 kmh SW 4.7 mph7.6 kmh 30.07 in1018.3 mb 0.00 in0.0 mm 0.00 in0.0 mm 0.00 in0.0 mm
02:14 AM 84.2°F29.0°C 77.0°F25.0°C 79% 2.2 mph W3.5 kmh W 4.7 mph7.6 kmh 30.07 in1018.3 mb 0.00 in0.0 mm 0.00 in0.0 mm 0.00 in0.0 mm
02:13 AM 84.2°F29.0°C 77.0°F25.0°C 79% 2.7 mph W4.3 kmh W 4.7 mph7.6 kmh 30.07 in1018.3 mb 0.00 in0.0 mm 0.00 in0.0 mm 0.00 in0.0 mm
02:12 AM 84.2°F29.0°C 77.0°F25.0°C 79% 2.2 mph SW3.5 kmh SW 4.7 mph7.6 kmh 30.07 in1018.3 mb 0.00 in0.0 mm 0.00 in0.0 mm 0.00 in0.0 mm
02:11 AM 84.2°F29.0°C 77.3°F25.2°C 80% 2.2 mph WSW3.5 kmh WSW 4.7 mph7.6 kmh 30.07 in1018.3 mb 0.00 in0.0 mm 0.00 in0.0 mm 0.00 in0.0 mm
02:10 AM 84.2°F29.0°C 77.3°F25.2°C 80% 4.2 mph W6.8 kmh W 4.7 mph7.6 kmh 30.07 in1018.3 mb 0.00 in0.0 mm 0.00 in0.0 mm 0.00 in0.0 mm
02:09 AM 84.2°F29.0°C 77.3°F25.2°C 80% 2.2 mph W3.5 kmh W 4.7 mph7.6 kmh 30.07 in1018.3 mb 0.00 in0.0 mm 0.00 in0.0 mm 0.00 in0.0 mm
02:08 AM 84.2°F29.0°C 77.7°F25.4°C 81% 3.2 mph WSW5.1 kmh WSW 4.7 mph7.6 kmh 30.07 in1018.3 mb 0.00 in0.0 mm 0.00 in0.0 mm 0.00 in0.0 mm
02:07 AM 84.2°F29.0°C 77.3°F25.2°C 80% 3.7 mph W6.0 kmh W 4.2 mph6.8 kmh 30.07 in1018.3 mb 0.00 in0.0 mm 0.00 in0.0 mm 0.00 in0.0 mm
02:06 AM 84.2°F29.0°C 77.3°F25.2°C 80% 4.2 mph WSW6.8 kmh WSW 4.2 mph6.8 kmh 30.07 in1018.3 mb 0.00 in0.0 mm 0.00 in0.0 mm 0.00 in0.0 mm
02:05 AM 84.0°F28.9°C 76.8°F24.9°C 79% 3.2 mph SSW5.1 kmh SSW 3.7 mph6.0 kmh 30.07 in1018.3 mb 0.00 in0.0 mm 0.00 in0.0 mm 0.00 in0.0 mm
02:04 AM 84.0°F28.9°C 76.8°F24.9°C 79% 3.7 mph W6.0 kmh W 3.7 mph6.0 kmh 30.07 in1018.3 mb 0.00 in0.0 mm 0.00 in0.0 mm 0.00 in0.0 mm
02:03 AM 84.0°F28.9°C 76.4°F24.7°C 78% 3.2 mph W5.1 kmh W 3.2 mph5.1 kmh 30.07 in1018.3 mb 0.00 in0.0 mm 0.00 in0.0 mm 0.00 in0.0 mm
02:02 AM 84.0°F28.9°C 76.4°F24.7°C 78% 1.1 mph SSW1.8 kmh SSW 3.2 mph5.1 kmh 30.07 in1018.3 mb 0.00 in0.0 mm 0.00 in0.0 mm 0.00 in0.0 mm
02:01 AM 84.2°F29.0°C 76.6°F24.8°C 78% 1.7 mph W2.7 kmh W 3.2 mph5.1 kmh 30.07 in1018.3 mb 0.00 in0.0 mm 0.00 in0.0 mm 0.00 in0.0 mm
02:00 AM 84.2°F29.0°C 77.0°F25.0°C 79% 2.7 mph WSW4.3 kmh WSW 3.2 mph5.1 kmh 30.07 in1018.3 mb 0.00 in0.0 mm 0.00 in0.0 mm 0.00 in0.0 mm
01:59 AM 84.2°F29.0°C 77.0°F25.0°C 79% Calm Calm 3.2 mph5.1 kmh 30.07 in1018.3 mb 0.00 in0.0 mm 0.00 in0.0 mm 0.00 in0.0 mm
01:58 AM 84.2°F29.0°C 77.0°F25.0°C 79% Calm Calm 3.2 mph5.1 kmh 30.07 in1018.3 mb 0.00 in0.0 mm 0.00 in0.0 mm 0.00 in0.0 mm
01:57 AM 84.2°F29.0°C 77.0°F25.0°C 79% 1.1 mph WSW1.8 kmh WSW 3.7 mph6.0 kmh 30.07 in1018.3 mb 0.00 in0.0 mm 0.00 in0.0 mm 0.00 in0.0 mm
01:56 AM 84.2°F29.0°C 77.0°F25.0°C 79% 2.2 mph WSW3.5 kmh WSW 3.7 mph6.0 kmh 30.07 in1018.3 mb 0.00 in0.0 mm 0.00 in0.0 mm 0.00 in0.0 mm
01:55 AM 84.2°F29.0°C 77.0°F25.0°C 79% 2.2 mph WSW3.5 kmh WSW 3.7 mph6.0 kmh 30.07 in1018.3 mb 0.00 in0.0 mm 0.00 in0.0 mm 0.00 in0.0 mm
01:54 AM 84.2°F29.0°C 77.0°F25.0°C 79% 2.7 mph SSW4.3 kmh SSW 3.7 mph6.0 kmh 30.07 in1018.3 mb 0.00 in0.0 mm 0.00 in0.0 mm 0.00 in0.0 mm
01:53 AM 84.2°F29.0°C 77.0°F25.0°C 79% 2.7 mph SW4.3 kmh SW 3.7 mph6.0 kmh 30.07 in1018.3 mb 0.00 in0.0 mm 0.00 in0.0 mm 0.00 in0.0 mm
01:52 AM 84.2°F29.0°C 77.0°F25.0°C 79% 2.7 mph WSW4.3 kmh WSW 3.7 mph6.0 kmh 30.07 in1018.3 mb 0.00 in0.0 mm 0.00 in0.0 mm 0.00 in0.0 mm
01:51 AM 84.2°F29.0°C 77.0°F25.0°C 79% 2.7 mph WSW4.3 kmh WSW 3.7 mph6.0 kmh 30.07 in1018.3 mb 0.00 in0.0 mm 0.00 in0.0 mm 0.00 in0.0 mm
01:50 AM 84.2°F29.0°C 77.0°F25.0°C 79% 2.7 mph W4.3 kmh W 3.7 mph6.0 kmh 30.07 in1018.3 mb 0.00 in0.0 mm 0.00 in0.0 mm 0.00 in0.0 mm
01:49 AM 84.2°F29.0°C 77.0°F25.0°C 79% Calm Calm 3.7 mph6.0 kmh 30.08 in1018.6 mb 0.00 in0.0 mm 0.00 in0.0 mm 0.00 in0.0 mm
01:48 AM 84.2°F29.0°C 76.6°F24.8°C 78% 3.7 mph W6.0 kmh W 3.7 mph6.0 kmh 30.08 in1018.6 mb 0.00 in0.0 mm 0.00 in0.0 mm 0.00 in0.0 mm
01:47 AM 84.2°F29.0°C 76.6°F24.8°C 78% 2.7 mph WSW4.3 kmh WSW 2.7 mph4.3 kmh 30.08 in1018.6 mb 0.00 in0.0 mm 0.00 in0.0 mm 0.00 in0.0 mm
01:46 AM 84.2°F29.0°C 76.6°F24.8°C 78% 1.7 mph W2.7 kmh W 2.7 mph4.3 kmh 30.08 in1018.6 mb 0.00 in0.0 mm 0.00 in0.0 mm 0.00 in0.0 mm
01:45 AM 84.2°F29.0°C 76.6°F24.8°C 78% 1.7 mph SW2.7 kmh SW 2.7 mph4.3 kmh 30.08 in1018.6 mb 0.00 in0.0 mm 0.00 in0.0 mm 0.00 in0.0 mm
01:44 AM 84.2°F29.0°C 76.6°F24.8°C 78% Calm Calm 2.7 mph4.3 kmh 30.08 in1018.6 mb 0.00 in0.0 mm 0.00 in0.0 mm 0.00 in0.0 mm
01:43 AM 84.2°F29.0°C 76.6°F24.8°C 78% Calm Calm 2.7 mph4.3 kmh 30.08 in1018.6 mb 0.00 in0.0 mm 0.00 in0.0 mm 0.00 in0.0 mm
01:42 AM 84.2°F29.0°C 76.6°F24.8°C 78% Calm Calm 2.7 mph4.3 kmh 30.08 in1018.6 mb 0.00 in0.0 mm 0.00 in0.0 mm 0.00 in0.0 mm
01:41 AM 84.2°F29.0°C 76.6°F24.8°C 78% 1.7 mph WNW2.7 kmh WNW 2.7 mph4.3 kmh 30.08 in1018.6 mb 0.00 in0.0 mm 0.00 in0.0 mm 0.00 in0.0 mm
01:40 AM 84.2°F29.0°C 76.6°F24.8°C 78% 2.7 mph WSW4.3 kmh WSW 2.7 mph4.3 kmh 30.08 in1018.6 mb 0.00 in0.0 mm 0.00 in0.0 mm 0.00 in0.0 mm
01:39 AM 84.2°F29.0°C 76.6°F24.8°C 78% 1.7 mph SW2.7 kmh SW 2.7 mph4.3 kmh 30.08 in1018.6 mb 0.00 in0.0 mm 0.00 in0.0 mm 0.00 in0.0 mm
01:38 AM 84.2°F29.0°C 76.6°F24.8°C 78% 1.7 mph SW2.7 kmh SW 2.7 mph4.3 kmh 30.08 in1018.6 mb 0.00 in0.0 mm 0.00 in0.0 mm 0.00 in0.0 mm
01:37 AM 84.2°F29.0°C 76.6°F24.8°C 78% 2.7 mph W4.3 kmh W 2.7 mph4.3 kmh 30.08 in1018.6 mb 0.00 in0.0 mm 0.00 in0.0 mm 0.00 in0.0 mm
01:36 AM 84.2°F29.0°C 76.6°F24.8°C 78% Calm Calm 2.7 mph4.3 kmh 30.08 in1018.6 mb 0.00 in0.0 mm 0.00 in0.0 mm 0.00 in0.0 mm
01:35 AM 84.2°F29.0°C 76.6°F24.8°C 78% 1.1 mph SSW1.8 kmh SSW 2.7 mph4.3 kmh 30.08 in1018.6 mb 0.00 in0.0 mm 0.00 in0.0 mm 0.00 in0.0 mm
01:34 AM 84.2°F29.0°C 76.6°F24.8°C 78% Calm Calm 3.7 mph6.0 kmh 30.08 in1018.6 mb 0.00 in0.0 mm 0.00 in0.0 mm 0.00 in0.0 mm
01:33 AM 84.2°F29.0°C 76.6°F24.8°C 78% 1.7 mph WSW2.7 kmh WSW 3.7 mph6.0 kmh 30.08 in1018.6 mb 0.00 in0.0 mm 0.00 in0.0 mm 0.00 in0.0 mm
01:32 AM 84.4°F29.1°C 76.7°F24.8°C 78% Calm Calm 3.7 mph6.0 kmh 30.08 in1018.6 mb 0.00 in0.0 mm 0.00 in0.0 mm 0.00 in0.0 mm
01:31 AM 84.4°F29.1°C 76.7°F24.8°C 78% 2.2 mph SW3.5 kmh SW 3.7 mph6.0 kmh 30.08 in1018.6 mb 0.00 in0.0 mm 0.00 in0.0 mm 0.00 in0.0 mm
01:30 AM 84.4°F29.1°C 76.7°F24.8°C 78% 1.7 mph SW2.7 kmh SW 3.7 mph6.0 kmh 30.08 in1018.6 mb 0.00 in0.0 mm 0.00 in0.0 mm 0.00 in0.0 mm
01:29 AM 84.4°F29.1°C 76.7°F24.8°C 78% 1.1 mph WSW1.8 kmh WSW 3.7 mph6.0 kmh 30.08 in1018.6 mb 0.00 in0.0 mm 0.00 in0.0 mm 0.00 in0.0 mm
01:28 AM 84.4°F29.1°C 76.7°F24.8°C 78% 1.7 mph WSW2.7 kmh WSW 4.7 mph7.6 kmh 30.08 in1018.6 mb 0.00 in0.0 mm 0.00 in0.0 mm 0.00 in0.0 mm
01:27 AM 84.4°F29.1°C 76.7°F24.8°C 78% 2.2 mph WSW3.5 kmh WSW 5.3 mph8.5 kmh 30.08 in1018.6 mb 0.00 in0.0 mm 0.00 in0.0 mm 0.00 in0.0 mm
01:26 AM 84.6°F29.2°C 76.9°F24.9°C 78% 1.1 mph SW1.8 kmh SW 5.3 mph8.5 kmh 30.08 in1018.6 mb 0.00 in0.0 mm 0.00 in0.0 mm 0.00 in0.0 mm
01:25 AM 84.6°F29.2°C 76.9°F24.9°C 78% 2.7 mph SSW4.3 kmh SSW 5.3 mph8.5 kmh 30.08 in1018.6 mb 0.00 in0.0 mm 0.00 in0.0 mm 0.00 in0.0 mm
01:24 AM 84.6°F29.2°C 76.9°F24.9°C 78% 3.7 mph W6.0 kmh W 5.3 mph8.5 kmh 30.08 in1018.6 mb 0.00 in0.0 mm 0.00 in0.0 mm 0.00 in0.0 mm
01:23 AM 84.6°F29.2°C 76.5°F24.7°C 77% 3.2 mph SW5.1 kmh SW 5.3 mph8.5 kmh 30.08 in1018.6 mb 0.00 in0.0 mm 0.00 in0.0 mm 0.00 in0.0 mm
01:22 AM 84.6°F29.2°C 76.5°F24.7°C 77% 1.7 mph SW2.7 kmh SW 5.3 mph8.5 kmh 30.08 in1018.6 mb 0.00 in0.0 mm 0.00 in0.0 mm 0.00 in0.0 mm
01:21 AM 84.6°F29.2°C 76.5°F24.7°C 77% 1.1 mph SSW1.8 kmh SSW 5.3 mph8.5 kmh 30.08 in1018.6 mb 0.00 in0.0 mm 0.00 in0.0 mm 0.00 in0.0 mm
01:20 AM 84.6°F29.2°C 76.5°F24.7°C 77% 2.2 mph SSW3.5 kmh SSW 5.3 mph8.5 kmh 30.08 in1018.6 mb 0.00 in0.0 mm 0.00 in0.0 mm 0.00 in0.0 mm
01:19 AM 84.6°F29.2°C 76.5°F24.7°C 77% 3.7 mph WSW6.0 kmh WSW 5.3 mph8.5 kmh 30.08 in1018.6 mb 0.00 in0.0 mm 0.00 in0.0 mm 0.00 in0.0 mm
01:18 AM 84.6°F29.2°C 76.5°F24.7°C 77% 5.3 mph W8.5 kmh W 5.3 mph8.5 kmh 30.08 in1018.6 mb 0.00 in0.0 mm 0.00 in0.0 mm 0.00 in0.0 mm
01:17 AM 84.6°F29.2°C 76.5°F24.7°C 77% 5.3 mph W8.5 kmh W 5.3 mph8.5 kmh 30.08 in1018.6 mb 0.00 in0.0 mm 0.00 in0.0 mm 0.00 in0.0 mm
01:16 AM 84.6°F29.2°C 76.5°F24.7°C 77% 3.2 mph W5.1 kmh W 5.3 mph8.5 kmh 30.08 in1018.6 mb 0.00 in0.0 mm 0.00 in0.0 mm 0.00 in0.0 mm
01:15 AM 84.6°F29.2°C 76.5°F24.7°C 77% 3.7 mph WSW6.0 kmh WSW 5.3 mph8.5 kmh 30.08 in1018.6 mb 0.00 in0.0 mm 0.00 in0.0 mm 0.00 in0.0 mm
01:14 AM 84.6°F29.2°C 76.5°F24.7°C 77% 3.7 mph WNW6.0 kmh WNW 5.3 mph8.5 kmh 30.08 in1018.6 mb 0.00 in0.0 mm 0.00 in0.0 mm 0.00 in0.0 mm
01:13 AM 84.6°F29.2°C 76.5°F24.7°C 77% 5.3 mph W8.5 kmh W 5.3 mph8.5 kmh 30.07 in1018.3 mb 0.00 in0.0 mm 0.00 in0.0 mm 0.00 in0.0 mm
01:12 AM 84.6°F29.2°C 76.5°F24.7°C 77% 1.7 mph W2.7 kmh W 4.2 mph6.8 kmh 30.07 in1018.3 mb 0.00 in0.0 mm 0.00 in0.0 mm 0.00 in0.0 mm
01:11 AM 84.6°F29.2°C 76.5°F24.7°C 77% 3.2 mph W5.1 kmh W 4.2 mph6.8 kmh 30.07 in1018.3 mb 0.00 in0.0 mm 0.00 in0.0 mm 0.00 in0.0 mm
01:10 AM 84.6°F29.2°C 76.5°F24.7°C 77% 3.2 mph SW5.1 kmh SW 4.2 mph6.8 kmh 30.07 in1018.3 mb 0.00 in0.0 mm 0.00 in0.0 mm 0.00 in0.0 mm
01:09 AM 84.6°F29.2°C 76.5°F24.7°C 77% 3.2 mph W5.1 kmh W 4.2 mph6.8 kmh 30.07 in1018.3 mb 0.00 in0.0 mm 0.00 in0.0 mm 0.00 in0.0 mm
01:08 AM 84.6°F29.2°C 76.5°F24.7°C 77% 3.2 mph W5.1 kmh W 4.2 mph6.8 kmh 30.07 in1018.3 mb 0.00 in0.0 mm 0.00 in0.0 mm 0.00 in0.0 mm
01:07 AM 84.4°F29.1°C 76.4°F24.7°C 77% 3.7 mph W6.0 kmh W 4.2 mph6.8 kmh 30.07 in1018.3 mb 0.00 in0.0 mm 0.00 in0.0 mm 0.00 in0.0 mm
01:06 AM 84.4°F29.1°C 76.0°F24.4°C 76% 2.7 mph W4.3 kmh W 4.2 mph6.8 kmh 30.07 in1018.3 mb 0.00 in0.0 mm 0.00 in0.0 mm 0.00 in0.0 mm
01:05 AM 84.4°F29.1°C 76.0°F24.4°C 76% 3.7 mph W6.0 kmh W 4.2 mph6.8 kmh 30.07 in1018.3 mb 0.00 in0.0 mm 0.00 in0.0 mm 0.00 in0.0 mm
01:04 AM 84.4°F29.1°C 76.4°F24.7°C 77% 4.2 mph W6.8 kmh W 4.2 mph6.8 kmh 30.07 in1018.3 mb 0.00 in0.0 mm 0.00 in0.0 mm 0.00 in0.0 mm
01:03 AM 84.4°F29.1°C 76.4°F24.7°C 77% 3.2 mph WNW5.1 kmh WNW 4.2 mph6.8 kmh 30.07 in1018.3 mb 0.00 in0.0 mm 0.00 in0.0 mm 0.00 in0.0 mm
01:02 AM 84.4°F29.1°C 76.4°F24.7°C 77% 1.7 mph SW2.7 kmh SW 4.2 mph6.8 kmh 30.07 in1018.3 mb 0.00 in0.0 mm 0.00 in0.0 mm 0.00 in0.0 mm
01:01 AM 84.4°F29.1°C 76.0°F24.4°C 76% 3.2 mph W5.1 kmh W 4.2 mph6.8 kmh 30.08 in1018.6 mb 0.00 in0.0 mm 0.00 in0.0 mm 0.00 in0.0 mm
01:00 AM 84.4°F29.1°C 76.0°F24.4°C 76% 1.7 mph SSW2.7 kmh SSW 4.2 mph6.8 kmh 30.08 in1018.6 mb 0.00 in0.0 mm 0.00 in0.0 mm 0.00 in0.0 mm
12:59 AM 84.4°F29.1°C 76.0°F24.4°C 76% 2.2 mph WSW3.5 kmh WSW 4.2 mph6.8 kmh 30.08 in1018.6 mb 0.00 in0.0 mm 0.00 in0.0 mm 0.00 in0.0 mm
12:58 AM 84.4°F29.1°C 76.4°F24.7°C 77% 3.7 mph WSW6.0 kmh WSW 3.7 mph6.0 kmh 30.08 in1018.6 mb 0.00 in0.0 mm 0.00 in0.0 mm 0.00 in0.0 mm
12:57 AM 84.4°F29.1°C 76.4°F24.7°C 77% 2.7 mph SW4.3 kmh SW 3.7 mph6.0 kmh 30.08 in1018.6 mb 0.00 in0.0 mm 0.00 in0.0 mm 0.00 in0.0 mm
12:56 AM 84.4°F29.1°C 76.7°F24.8°C 78% 2.7 mph W4.3 kmh W 3.7 mph6.0 kmh 30.08 in1018.6 mb 0.00 in0.0 mm 0.00 in0.0 mm 0.00 in0.0 mm
12:55 AM 84.4°F29.1°C 76.7°F24.8°C 78% 1.1 mph WSW1.8 kmh WSW 3.7 mph6.0 kmh 30.08 in1018.6 mb 0.00 in0.0 mm 0.00 in0.0 mm 0.00 in0.0 mm
12:54 AM 84.6°F29.2°C 76.9°F24.9°C 78% Calm Calm 3.7 mph6.0 kmh 30.08 in1018.6 mb 0.00 in0.0 mm 0.00 in0.0 mm 0.00 in0.0 mm
12:53 AM 84.6°F29.2°C 76.9°F24.9°C 78% 1.1 mph SSW1.8 kmh SSW 3.7 mph6.0 kmh 30.08 in1018.6 mb 0.00 in0.0 mm 0.00 in0.0 mm 0.00 in0.0 mm
12:52 AM 84.6°F29.2°C 76.9°F24.9°C 78% 1.1 mph SW1.8 kmh SW 3.7 mph6.0 kmh 30.08 in1018.6 mb 0.00 in0.0 mm 0.00 in0.0 mm 0.00 in0.0 mm
12:51 AM 84.4°F29.1°C 76.4°F24.7°C 77% 2.2 mph WNW3.5 kmh WNW 3.7 mph6.0 kmh 30.08 in1018.6 mb 0.00 in0.0 mm 0.00 in0.0 mm 0.00 in0.0 mm
12:50 AM 84.4°F29.1°C 76.4°F24.7°C 77% 2.2 mph SW3.5 kmh SW 3.7 mph6.0 kmh 30.08 in1018.6 mb 0.00 in0.0 mm 0.00 in0.0 mm 0.00 in0.0 mm
12:49 AM 84.4°F29.1°C 76.0°F24.4°C 76% 2.7 mph WSW4.3 kmh WSW 3.7 mph6.0 kmh 30.08 in1018.6 mb 0.00 in0.0 mm 0.00 in0.0 mm 0.00 in0.0 mm
12:48 AM 84.4°F29.1°C 76.0°F24.4°C 76% 2.2 mph SSE3.5 kmh SSE 3.7 mph6.0 kmh 30.08 in1018.6 mb 0.00 in0.0 mm 0.00 in0.0 mm 0.00 in0.0 mm
12:47 AM 84.4°F29.1°C 76.0°F24.4°C 76% Calm Calm 3.7 mph6.0 kmh 30.08 in1018.6 mb 0.00 in0.0 mm 0.00 in0.0 mm 0.00 in0.0 mm
12:46 AM 84.4°F29.1°C 76.0°F24.4°C 76% 2.2 mph W3.5 kmh W 3.7 mph6.0 kmh 30.08 in1018.6 mb 0.00 in0.0 mm 0.00 in0.0 mm 0.00 in0.0 mm
12:45 AM 84.4°F29.1°C 76.0°F24.4°C 76% 1.1 mph SSW1.8 kmh SSW 3.7 mph6.0 kmh 30.08 in1018.6 mb 0.00 in0.0 mm 0.00 in0.0 mm 0.00 in0.0 mm
12:44 AM 84.2°F29.0°C 75.8°F24.3°C 76% 3.7 mph W6.0 kmh W 3.7 mph6.0 kmh 30.08 in1018.6 mb 0.00 in0.0 mm 0.00 in0.0 mm 0.00 in0.0 mm
12:43 AM 84.2°F29.0°C 75.4°F24.1°C 75% 2.7 mph WSW4.3 kmh WSW 3.7 mph6.0 kmh 30.08 in1018.6 mb 0.00 in0.0 mm 0.00 in0.0 mm 0.00 in0.0 mm
12:42 AM 84.2°F29.0°C 75.8°F24.3°C 76% 2.7 mph W4.3 kmh W 3.7 mph6.0 kmh 30.08 in1018.6 mb 0.00 in0.0 mm 0.00 in0.0 mm 0.00 in0.0 mm
12:41 AM 84.2°F29.0°C 75.4°F24.1°C 75% 2.2 mph W3.5 kmh W 3.7 mph6.0 kmh 30.08 in1018.6 mb 0.00 in0.0 mm 0.00 in0.0 mm 0.00 in0.0 mm
12:40 AM 84.2°F29.0°C 75.8°F24.3°C 76% 2.7 mph SW4.3 kmh SW 3.7 mph6.0 kmh 30.08 in1018.6 mb 0.00 in0.0 mm 0.00 in0.0 mm 0.00 in0.0 mm
12:39 AM 84.2°F29.0°C 75.8°F24.3°C 76% 3.7 mph W6.0 kmh W 3.7 mph6.0 kmh 30.08 in1018.6 mb 0.00 in0.0 mm 0.00 in0.0 mm 0.00 in0.0 mm
12:38 AM 84.2°F29.0°C 75.8°F24.3°C 76% 2.7 mph W4.3 kmh W 3.2 mph5.1 kmh 30.08 in1018.6 mb 0.00 in0.0 mm 0.00 in0.0 mm 0.00 in0.0 mm
12:37 AM 84.2°F29.0°C 75.8°F24.3°C 76% 2.7 mph SW4.3 kmh SW 2.7 mph4.3 kmh 30.08 in1018.6 mb 0.00 in0.0 mm 0.00 in0.0 mm 0.00 in0.0 mm
12:36 AM 84.2°F29.0°C 75.8°F24.3°C 76% 2.2 mph W3.5 kmh W 2.7 mph4.3 kmh 30.08 in1018.6 mb 0.00 in0.0 mm 0.00 in0.0 mm 0.00 in0.0 mm
12:35 AM 84.2°F29.0°C 75.8°F24.3°C 76% 2.2 mph W3.5 kmh W 2.7 mph4.3 kmh 30.08 in1018.6 mb 0.00 in0.0 mm 0.00 in0.0 mm 0.00 in0.0 mm
12:34 AM 84.2°F29.0°C 75.8°F24.3°C 76% 1.7 mph SW2.7 kmh SW 2.7 mph4.3 kmh 30.08 in1018.6 mb 0.00 in0.0 mm 0.00 in0.0 mm 0.00 in0.0 mm
12:33 AM 84.2°F29.0°C 75.8°F24.3°C 76% Calm Calm 2.7 mph4.3 kmh 30.08 in1018.6 mb 0.00 in0.0 mm 0.00 in0.0 mm 0.00 in0.0 mm
12:32 AM 84.2°F29.0°C 76.2°F24.6°C 77% 2.2 mph WSW3.5 kmh WSW 2.7 mph4.3 kmh 30.08 in1018.6 mb 0.00 in0.0 mm 0.00 in0.0 mm 0.00 in0.0 mm
12:31 AM 84.2°F29.0°C 76.2°F24.6°C 77% 1.1 mph SW1.8 kmh SW 1.7 mph2.7 kmh 30.08 in1018.6 mb 0.00 in0.0 mm 0.00 in0.0 mm 0.00 in0.0 mm
12:30 AM 84.2°F29.0°C 76.2°F24.6°C 77% 1.1 mph SSW1.8 kmh SSW 1.7 mph2.7 kmh 30.08 in1018.6 mb 0.00 in0.0 mm 0.00 in0.0 mm 0.00 in0.0 mm
12:29 AM 84.2°F29.0°C 76.2°F24.6°C 77% 1.7 mph SW2.7 kmh SW 1.7 mph2.7 kmh 30.08 in1018.6 mb 0.00 in0.0 mm 0.00 in0.0 mm 0.00 in0.0 mm
12:28 AM 84.2°F29.0°C 76.2°F24.6°C 77% Calm Calm -- 30.08 in1018.6 mb 0.00 in0.0 mm 0.00 in0.0 mm 0.00 in0.0 mm
12:27 AM 84.2°F29.0°C 76.2°F24.6°C 77% Calm Calm 3.2 mph5.1 kmh 30.08 in1018.6 mb 0.00 in0.0 mm 0.00 in0.0 mm 0.00 in0.0 mm
12:26 AM 84.2°F29.0°C 76.6°F24.8°C 78% Calm Calm 4.7 mph7.6 kmh 30.08 in1018.6 mb 0.00 in0.0 mm 0.00 in0.0 mm 0.00 in0.0 mm
12:25 AM 84.2°F29.0°C 76.6°F24.8°C 78% Calm Calm 4.7 mph7.6 kmh 30.08 in1018.6 mb 0.00 in0.0 mm 0.00 in0.0 mm 0.00 in0.0 mm
12:24 AM 84.2°F29.0°C 76.2°F24.6°C 77% Calm Calm 4.7 mph7.6 kmh 30.08 in1018.6 mb 0.00 in0.0 mm 0.00 in0.0 mm 0.00 in0.0 mm
12:23 AM 84.2°F29.0°C 76.2°F24.6°C 77% Calm Calm 4.7 mph7.6 kmh 30.08 in1018.6 mb 0.00 in0.0 mm 0.00 in0.0 mm 0.00 in0.0 mm
12:22 AM 84.2°F29.0°C 76.2°F24.6°C 77% Calm Calm 4.7 mph7.6 kmh 30.08 in1018.6 mb 0.00 in0.0 mm 0.00 in0.0 mm 0.00 in0.0 mm
12:21 AM 84.4°F29.1°C 76.4°F24.7°C 77% Calm Calm 4.7 mph7.6 kmh 30.08 in1018.6 mb 0.00 in0.0 mm 0.00 in0.0 mm 0.00 in0.0 mm
12:20 AM 84.4°F29.1°C 76.4°F24.7°C 77% Calm Calm 4.7 mph7.6 kmh 30.08 in1018.6 mb 0.00 in0.0 mm 0.00 in0.0 mm 0.00 in0.0 mm
12:19 AM 84.4°F29.1°C 76.4°F24.7°C 77% Calm Calm 4.7 mph7.6 kmh 30.08 in1018.6 mb 0.00 in0.0 mm 0.00 in0.0 mm 0.00 in0.0 mm
12:18 AM 84.4°F29.1°C 76.7°F24.8°C 78% 3.2 mph SSW5.1 kmh SSW 4.7 mph7.6 kmh 30.08 in1018.6 mb 0.00 in0.0 mm 0.00 in0.0 mm 0.00 in0.0 mm
12:17 AM 84.4°F29.1°C 76.7°F24.8°C 78% Calm Calm 4.7 mph7.6 kmh 30.08 in1018.6 mb 0.00 in0.0 mm 0.00 in0.0 mm 0.00 in0.0 mm
12:16 AM 84.4°F29.1°C 76.7°F24.8°C 78% 1.1 mph SW1.8 kmh SW 3.7 mph6.0 kmh 30.08 in1018.6 mb 0.00 in0.0 mm 0.00 in0.0 mm 0.00 in0.0 mm
12:15 AM 84.4°F29.1°C 76.7°F24.8°C 78% 1.1 mph SW1.8 kmh SW 3.7 mph6.0 kmh 30.08 in1018.6 mb 0.00 in0.0 mm 0.00 in0.0 mm 0.00 in0.0 mm
12:14 AM 84.4°F29.1°C 76.7°F24.8°C 78% 2.7 mph SSW4.3 kmh SSW 3.7 mph6.0 kmh 30.08 in1018.6 mb 0.00 in0.0 mm 0.00 in0.0 mm 0.00 in0.0 mm
12:13 AM 84.4°F29.1°C 76.7°F24.8°C 78% 2.2 mph WSW3.5 kmh WSW 3.7 mph6.0 kmh 30.08 in1018.6 mb 0.00 in0.0 mm 0.00 in0.0 mm 0.00 in0.0 mm
12:12 AM 84.4°F29.1°C 77.1°F25.1°C 79% 3.7 mph WSW6.0 kmh WSW 4.2 mph6.8 kmh 30.08 in1018.6 mb 0.00 in0.0 mm 0.00 in0.0 mm 0.00 in0.0 mm
12:11 AM 84.4°F29.1°C 77.1°F25.1°C 79% 2.2 mph WSW3.5 kmh WSW 4.7 mph7.6 kmh 30.08 in1018.6 mb 0.00 in0.0 mm 0.00 in0.0 mm 0.00 in0.0 mm
12:10 AM 84.4°F29.1°C 76.7°F24.8°C 78% Calm Calm 4.7 mph7.6 kmh 30.08 in1018.6 mb 0.00 in0.0 mm 0.00 in0.0 mm 0.00 in0.0 mm
12:09 AM 84.4°F29.1°C 76.7°F24.8°C 78% Calm Calm 4.7 mph7.6 kmh 30.08 in1018.6 mb 0.00 in0.0 mm 0.00 in0.0 mm 0.00 in0.0 mm
12:08 AM 84.4°F29.1°C 76.7°F24.8°C 78% Calm Calm 4.7 mph7.6 kmh 30.08 in1018.6 mb 0.00 in0.0 mm 0.00 in0.0 mm 0.00 in0.0 mm
12:07 AM 84.4°F29.1°C 76.7°F24.8°C 78% 1.7 mph SW2.7 kmh SW 4.7 mph7.6 kmh 30.08 in1018.6 mb 0.00 in0.0 mm 0.00 in0.0 mm 0.00 in0.0 mm
12:06 AM 84.4°F29.1°C 76.7°F24.8°C 78% 1.7 mph W2.7 kmh W 4.7 mph7.6 kmh 30.08 in1018.6 mb 0.00 in0.0 mm 0.00 in0.0 mm 0.00 in0.0 mm
12:05 AM 84.4°F29.1°C 76.7°F24.8°C 78% Calm Calm 6.3 mph10.1 kmh 30.08 in1018.6 mb 0.00 in0.0 mm 0.00 in0.0 mm 0.00 in0.0 mm
12:04 AM 84.6°F29.2°C 76.9°F24.9°C 78% 1.1 mph WSW1.8 kmh WSW 6.3 mph10.1 kmh 30.08 in1018.6 mb 0.00 in0.0 mm 0.00 in0.0 mm 0.00 in0.0 mm
12:03 AM 84.6°F29.2°C 76.9°F24.9°C 78% 3.2 mph SW5.1 kmh SW 6.3 mph10.1 kmh 30.08 in1018.6 mb 0.00 in0.0 mm 0.00 in0.0 mm 0.00 in0.0 mm
12:02 AM 84.6°F29.2°C 76.9°F24.9°C 78% 4.7 mph SSW7.6 kmh SSW 6.3 mph10.1 kmh 30.08 in1018.6 mb 0.00 in0.0 mm 0.00 in0.0 mm 0.00 in0.0 mm
12:01 AM 84.6°F29.2°C 76.9°F24.9°C 78% 1.7 mph W2.7 kmh W 6.3 mph10.1 kmh 30.09 in1019.0 mb 0.00 in0.0 mm 0.00 in0.0 mm 0.00 in0.0 mm
12:00 AM 84.6°F29.2°C 76.9°F24.9°C 78% 3.7 mph SSW6.0 kmh SSW 6.3 mph10.1 kmh 30.09 in1019.0 mb 0.00 in0.0 mm 0.00 in0.0 mm 0.00 in0.0 mm